Time;durP1;ratioP1;P1;durP2;ratioP2;P2;SDS_P1;SDS_P2;PMS_P1;PMS_P2;Temp;Humidity;BMP_temperature;BMP_pressure;BME280_temperature;BME280_humidity;BME280_pressure;Samples;Min_cycle;Max_cycle;Signal;HPM_P1;HPM_P2
2021/11/14 00:02:22;;;;;;;;;15.00;11.50;;;;;12.30;91.30;101438.63;5060838;28;45865;-68
2021/11/14 00:04:48;;;;;;;;;13.25;12.50;;;;;12.26;91.78;101442.22;5060523;28;45423;-67
2021/11/14 00:07:15;;;;;;;;;11.25;10.00;;;;;12.18;91.64;101440.63;5061613;28;45338;-67
2021/11/14 00:09:40;;;;;;;;;10.75;10.25;;;;;12.17;91.92;101440.66;5061434;28;45495;-66
2021/11/14 00:12:06;;;;;;;;;16.25;13.50;;;;;12.15;92.28;101435.47;5062007;28;45433;-66
2021/11/14 00:14:32;;;;;;;;;6.50;5.50;;;;;12.18;91.69;101444.97;5061886;28;45405;-66
2021/11/14 00:16:57;;;;;;;;;14.00;12.00;;;;;12.20;91.50;101443.19;5061908;28;45263;-68
2021/11/14 00:19:23;;;;;;;;;13.75;11.50;;;;;12.19;91.93;101444.06;5046664;28;45599;-67
2021/11/14 00:21:49;;;;;;;;;13.00;10.25;;;;;12.17;91.80;101440.66;5050908;28;45348;-67
2021/11/14 00:24:16;;;;;;;;;15.00;11.75;;;;;12.13;92.04;101436.41;5050835;28;45422;-67
2021/11/14 00:26:42;;;;;;;;;12.50;12.50;;;;;12.12;92.79;101438.16;5051319;28;45403;-67
2021/11/14 00:29:09;;;;;;;;;12.00;10.00;;;;;12.07;92.73;101436.56;5048855;28;47068;-67
2021/11/14 00:31:36;;;;;;;;;9.50;8.75;;;;;12.07;92.81;101436.56;5049544;28;45437;-67
2021/11/14 00:34:05;;;;;;;;;12.00;8.50;;;;;12.07;92.91;101437.41;5049563;28;45455;-66
2021/11/14 00:36:32;;;;;;;;;14.50;11.50;;;;;12.11;92.67;101427.78;5061419;28;45357;-69
2021/11/14 00:38:58;;;;;;;;;8.00;8.00;;;;;12.09;92.93;101433.03;5060035;28;48347;-69
2021/11/14 00:41:25;;;;;;;;;9.00;9.00;;;;;12.06;92.98;101434.84;5061406;28;45322;-69
2021/11/14 00:43:52;;;;;;;;;14.50;10.25;;;;;12.05;93.31;101443.56;5060738;28;45440;-69
2021/11/14 00:46:18;;;;;;;;;11.00;10.00;;;;;12.04;93.15;101437.50;5060799;28;45322;-69
2021/11/14 00:48:44;;;;;;;;;9.50;9.50;;;;;12.05;93.05;101438.34;5050107;28;46891;-70
2021/11/14 00:51:19;;;;;;;;;13.75;9.75;;;;;12.09;92.93;101434.78;5059904;28;45263;-69
2021/11/14 00:53:45;;;;;;;;;13.25;11.00;;;;;12.14;92.65;101435.53;5054709;28;45509;-69
2021/11/14 00:56:11;;;;;;;;;11.75;10.25;;;;;12.17;92.18;101438.03;5061177;28;45216;-69
2021/11/14 00:58:36;;;;;;;;;13.75;9.50;;;;;12.19;92.36;101447.53;5061272;28;45588;-69
2021/11/14 01:01:02;;;;;;;;;12.25;10.00;;;;;12.12;92.47;101432.94;5061206;28;45275;-72
2021/11/14 01:03:28;;;;;;;;;15.25;10.25;;;;;12.11;92.55;101425.16;5061111;28;45442;-70
2021/11/14 01:05:54;;;;;;;;;10.25;9.75;;;;;12.14;92.49;101438.13;5060125;28;45450;-70
2021/11/14 01:08:20;;;;;;;;;14.75;9.50;;;;;12.13;92.46;101437.28;5060933;28;46247;-70
2021/11/14 01:10:50;;;;;;;;;10.75;10.50;;;;;12.14;92.30;101432.91;5060795;28;45444;-70
2021/11/14 01:13:17;;;;;;;;;10.00;9.25;;;;;12.18;92.22;101442.38;5060966;28;45356;-70
2021/11/14 01:15:44;;;;;;;;;13.50;10.75;;;;;12.16;92.33;101431.13;5060906;28;45509;-70
2021/11/14 01:18:11;;;;;;;;;13.50;10.50;;;;;12.19;92.28;101438.88;5056335;28;46220;-70
2021/11/14 01:20:39;;;;;;;;;38.75;31.25;;;;;12.21;92.25;101439.69;5051920;28;45894;-71
2021/11/14 01:23:10;;;;;;;;;17.00;12.50;;;;;12.20;92.16;101440.56;5058582;28;45166;-69
2021/11/14 01:25:37;;;;;;;;;11.25;9.50;;;;;12.23;92.15;101447.50;5052823;28;45303;-69
2021/11/14 01:28:03;;;;;;;;;9.25;8.75;;;;;12.17;92.39;101443.25;5060371;28;45375;-69
2021/11/14 01:30:32;;;;;;;;;13.00;13.00;;;;;12.14;92.37;101438.13;5060037;28;45699;-69
2021/11/14 01:32:59;;;;;;;;;11.00;9.25;;;;;12.13;92.39;101439.03;5060624;28;45191;-71
2021/11/14 01:35:25;;;;;;;;;14.00;9.25;;;;;12.13;92.47;101444.22;5060487;28;45282;-68
2021/11/14 01:37:52;;;;;;;;;9.00;9.00;;;;;12.16;92.55;101438.94;5059286;28;45349;-68
2021/11/14 01:40:25;;;;;;;;;12.75;11.00;;;;;12.10;92.62;101444.31;5048391;28;45531;-68
2021/11/14 01:42:52;;;;;;;;;11.25;9.75;;;;;12.02;92.87;101444.47;5051371;28;45341;-68
2021/11/14 01:45:18;;;;;;;;;12.50;9.50;;;;;11.99;93.30;101439.31;5051535;28;45334;-67
2021/11/14 01:47:44;;;;;;;;;11.50;9.50;;;;;12.02;92.91;101443.63;5046785;28;48519;-66
2021/11/14 01:50:12;;;;;;;;;10.00;10.00;;;;;12.03;93.03;101442.72;5047185;28;45268;-66
2021/11/14 01:52:40;;;;;;;;;16.50;12.50;;;;;12.08;92.83;101444.34;5049974;28;45371;-66
2021/11/14 01:55:06;;;;;;;;;16.50;11.00;;;;;12.07;92.80;101440.03;5053357;28;45362;-65
2021/11/14 01:57:33;;;;;;;;;12.00;11.00;;;;;12.06;92.76;101446.13;5060042;28;45488;-67
2021/11/14 01:59:58;;;;;;;;;13.50;11.25;;;;;12.06;92.89;101442.66;5058492;28;45314;-67
2021/11/14 02:02:24;;;;;;;;;11.75;11.00;;;;;12.07;92.83;101446.97;5060547;28;45417;-67
2021/11/14 02:04:50;;;;;;;;;12.00;10.00;;;;;12.03;93.11;101442.72;5059940;28;45430;-67
2021/11/14 02:07:17;;;;;;;;;10.75;10.50;;;;;12.02;92.99;101452.31;5055428;28;47055;-67
2021/11/14 02:09:43;;;;;;;;;14.75;9.75;;;;;12.06;92.85;101448.72;5054171;28;45819;-67
2021/11/14 02:12:09;;;;;;;;;9.00;9.00;;;;;12.07;92.77;101460.00;5060415;28;45388;-67
2021/11/14 02:14:34;;;;;;;;;9.50;8.00;;;;;12.05;92.99;101457.44;5060040;28;45394;-66
2021/11/14 02:17:01;;;;;;;;;9.00;9.00;;;;;12.06;93.04;101461.75;5059849;28;45370;-67
2021/11/14 02:19:28;;;;;;;;;15.50;12.00;;;;;12.09;92.90;101464.28;5059003;28;45846;-67
2021/11/14 02:21:53;;;;;;;;;10.00;10.00;;;;;12.12;92.88;101455.53;5054557;28;45493;-67
2021/11/14 02:24:20;;;;;;;;;11.00;10.50;;;;;12.14;92.93;101461.56;5041142;28;45553;-67
2021/11/14 02:26:46;;;;;;;;;9.25;7.75;;;;;12.12;92.83;101453.78;5057483;28;46238;-67
2021/11/14 02:29:12;;;;;;;;;11.75;10.25;;;;;12.06;93.26;101460.91;5057489;28;45487;-66
2021/11/14 02:31:38;;;;;;;;;11.50;10.00;;;;;12.01;93.44;101455.75;5057585;28;45705;-67
2021/11/14 02:34:03;;;;;;;;;8.50;8.00;;;;;11.93;93.71;101455.09;5057492;28;45463;-67
2021/11/14 02:36:29;;;;;;;;;15.00;11.75;;;;;11.93;93.68;101456.84;5056296;28;45705;-69
2021/11/14 02:38:54;;;;;;;;;11.75;11.50;;;;;11.95;93.65;101460.25;5057420;28;45605;-70
2021/11/14 02:41:23;;;;;;;;;14.75;12.00;;;;;11.95;93.79;101452.44;5059840;28;45505;-70
2021/11/14 02:43:51;;;;;;;;;14.50;10.50;;;;;11.96;94.28;101443.75;5058996;28;45477;-70
2021/11/14 02:46:18;;;;;;;;;15.25;14.75;;;;;12.02;93.72;101451.44;5058961;28;45292;-69
2021/11/14 02:48:44;;;;;;;;;12.00;11.00;;;;;12.05;93.67;101448.75;5058555;28;45359;-70
2021/11/14 02:51:14;;;;;;;;;15.50;11.25;;;;;12.04;93.40;101447.06;5059444;28;45453;-71
2021/11/14 02:53:40;;;;;;;;;57.25;42.50;;;;;12.04;93.60;101449.66;5050571;28;45284;-70
2021/11/14 02:56:06;;;;;;;;;24.75;22.75;;;;;12.03;93.54;101440.97;5059193;28;45860;-70
2021/11/14 02:58:32;;;;;;;;;13.50;10.00;;;;;12.07;93.61;101444.38;5058011;28;45671;-70
2021/11/14 03:01:09;;;;;;;;;13.00;11.25;;;;;12.07;93.37;101441.78;5059556;28;45241;-70
2021/11/14 03:03:35;;;;;;;;;11.50;10.00;;;;;12.06;93.37;101440.91;5059293;28;45303;-69
2021/11/14 03:06:00;;;;;;;;;12.00;10.00;;;;;12.04;93.39;101447.91;5058002;28;48340;-70
2021/11/14 03:08:26;;;;;;;;;11.50;9.75;;;;;12.03;94.06;101440.13;5059177;28;45347;-69
2021/11/14 03:10:52;;;;;;;;;12.75;9.25;;;;;11.99;93.82;101447.13;5059218;28;45445;-69
2021/11/14 03:13:20;;;;;;;;;9.50;8.75;;;;;11.96;93.57;101443.75;5059306;28;45307;-69
2021/11/14 03:15:49;;;;;;;;;14.75;11.00;;;;;11.98;93.78;101439.34;5054577;28;47064;-68
2021/11/14 03:18:16;;;;;;;;;10.00;10.00;;;;;12.01;94.01;101441.88;5056314;28;45794;-68
2021/11/14 03:20:44;;;;;;;;;14.00;10.00;;;;;12.01;93.72;101441.88;5059341;28;45386;-69
2021/11/14 03:23:11;;;;;;;;;8.75;8.75;;;;;11.99;93.86;101446.28;5056028;28;45269;-69
2021/11/14 03:25:37;;;;;;;;;11.75;10.25;;;;;11.95;93.91;101449.84;5050496;28;45296;-68
2021/11/14 03:28:04;;;;;;;;;11.50;11.25;;;;;11.97;93.80;101448.91;5060252;28;45857;-69
2021/11/14 03:30:33;;;;;;;;;12.75;10.25;;;;;12.01;93.61;101449.69;5061266;28;45339;-69
2021/11/14 03:33:03;;;;;;;;;10.25;9.50;;;;;12.03;93.33;101453.16;5062408;28;45298;-69
2021/11/14 03:35:50;;;;;;;;;10.00;9.00;;;;;11.99;93.56;101452.34;5062128;28;45473;-69
2021/11/14 03:38:24;;;;;;;;;10.25;9.75;;;;;12.03;93.64;101447.94;5051688;28;45378;-69
2021/11/14 03:40:51;;;;;;;;;9.50;9.00;;;;;12.04;93.41;101450.50;5060983;28;45313;-69
2021/11/14 03:43:16;;;;;;;;;13.25;10.00;;;;;12.08;93.35;101464.31;5063599;28;45527;-69
2021/11/14 03:45:43;;;;;;;;;8.00;6.00;;;;;12.05;93.31;101461.78;5060701;28;46133;-68
2021/11/14 03:48:09;;;;;;;;;10.75;9.25;;;;;12.02;93.50;101461.88;5057746;28;45668;-69
2021/11/14 03:50:34;;;;;;;;;9.75;9.00;;;;;11.97;93.66;101450.66;5058885;28;45430;-69
2021/11/14 03:53:01;;;;;;;;;10.25;9.25;;;;;11.96;93.92;101460.22;5059288;28;45259;-69
2021/11/14 03:55:26;;;;;;;;;11.75;9.00;;;;;11.92;93.98;101458.59;5054614;28;46658;-69
2021/11/14 03:57:52;;;;;;;;;13.00;9.00;;;;;11.90;93.84;101454.31;5056948;28;45441;-69
2021/11/14 04:00:21;;;;;;;;;11.25;9.00;;;;;11.91;93.57;101456.00;5060695;28;45924;-69
2021/11/14 04:02:49;;;;;;;;;11.25;9.75;;;;;11.92;93.82;101449.91;5061000;28;45518;-69
2021/11/14 04:05:15;;;;;;;;;13.00;10.25;;;;;11.99;93.64;101459.28;5060778;28;46356;-68
2021/11/14 04:07:40;;;;;;;;;12.75;10.00;;;;;12.00;93.62;101463.63;5061004;28;45291;-68
2021/11/14 04:10:06;;;;;;;;;12.00;9.00;;;;;11.96;93.50;101454.16;5061285;28;45232;-67
2021/11/14 04:12:32;;;;;;;;;14.50;10.25;;;;;11.99;93.66;101460.16;5060883;28;45456;-67
2021/11/14 04:14:57;;;;;;;;;14.50;9.00;;;;;12.00;93.59;101461.00;5060400;28;45431;-68
2021/11/14 04:17:23;;;;;;;;;10.75;10.25;;;;;12.04;93.13;101460.06;5061412;28;45375;-68
2021/11/14 04:19:48;;;;;;;;;9.50;8.75;;;;;12.03;93.56;101455.75;5059748;28;45600;-68
2021/11/14 04:22:15;;;;;;;;;8.75;8.25;;;;;12.00;93.30;101450.59;5060734;28;45413;-68
2021/11/14 04:24:41;;;;;;;;;9.75;9.50;;;;;11.99;93.48;101452.34;5049343;28;45312;-67
2021/11/14 04:27:06;;;;;;;;;12.75;8.00;;;;;11.99;93.49;101451.47;5059740;28;46033;-67
2021/11/14 04:29:32;;;;;;;;;11.50;9.50;;;;;11.99;93.34;101441.06;5060242;28;46424;-67
2021/11/14 04:31:57;;;;;;;;;11.25;8.00;;;;;11.99;93.33;101449.72;5060604;28;45528;-68
2021/11/14 04:34:22;;;;;;;;;14.00;10.00;;;;;11.99;93.25;101446.28;5060001;28;46274;-69
2021/11/14 04:36:49;;;;;;;;;15.75;10.00;;;;;11.99;93.52;101448.88;5060498;28;45244;-70
2021/11/14 04:39:14;;;;;;;;;12.75;11.00;;;;;11.96;93.59;101451.56;5060949;28;45378;-69
2021/11/14 04:41:40;;;;;;;;;12.25;9.00;;;;;11.96;93.79;101451.56;5060364;28;45385;-66
2021/11/14 04:44:05;;;;;;;;;11.00;8.75;;;;;11.96;93.40;101459.38;5059432;28;46375;-68
2021/11/14 04:46:31;;;;;;;;;13.50;9.75;;;;;11.93;94.06;101456.84;5059351;28;45384;-67
2021/11/14 04:48:56;;;;;;;;;11.00;9.00;;;;;11.88;94.16;101457.78;5060073;28;45291;-67
2021/11/14 04:51:21;;;;;;;;;15.75;11.25;;;;;11.85;94.00;101462.22;5060561;28;45280;-67
2021/11/14 04:53:47;;;;;;;;;13.00;9.25;;;;;11.79;94.15;101462.31;5052656;28;47186;-66
2021/11/14 04:56:13;;;;;;;;;13.50;10.75;;;;;11.76;94.02;101457.16;5060221;28;45406;-66
2021/11/14 04:58:38;;;;;;;;;14.25;12.00;;;;;11.75;94.15;101458.91;5053317;28;45924;-66
2021/11/14 05:01:04;;;;;;;;;11.50;9.75;;;;;11.76;94.57;101451.94;5045626;28;45460;-70
2021/11/14 05:03:29;;;;;;;;;15.75;11.50;;;;;11.75;94.45;101452.84;5057709;28;45307;-68
2021/11/14 05:05:57;;;;;;;;;10.00;10.00;;;;;11.78;94.97;101456.25;5061063;28;45520;-65
2021/11/14 05:08:23;;;;;;;;;9.00;9.00;;;;;11.79;94.32;101457.97;5060974;28;45331;-66
2021/11/14 05:10:50;;;;;;;;;11.00;9.00;;;;;11.74;95.52;101454.59;5060936;28;45364;-66
2021/11/14 05:13:15;;;;;;;;;15.25;9.00;;;;;11.71;94.97;101449.44;5060763;28;45931;-65
2021/11/14 05:15:41;;;;;;;;;10.50;10.00;;;;;11.71;94.80;101454.66;5060360;28;45300;-65
2021/11/14 05:18:07;;;;;;;;;9.25;8.25;;;;;11.70;95.28;101450.34;5055765;28;45242;-66
2021/11/14 05:20:34;;;;;;;;;11.75;10.00;;;;;11.69;95.95;101448.63;5050444;28;45241;-66
2021/11/14 05:22:59;;;;;;;;;11.00;10.50;;;;;11.65;95.87;101452.19;5058281;28;46142;-64
2021/11/14 05:25:24;;;;;;;;;17.00;12.50;;;;;11.64;96.29;101453.06;5051039;28;45340;-64
2021/11/14 05:27:50;;;;;;;;;11.75;11.25;;;;;11.65;95.88;101452.19;5060759;28;45250;-64
2021/11/14 05:30:15;;;;;;;;;14.00;11.50;;;;;11.64;96.29;101455.69;5060658;28;45414;-64
2021/11/14 05:32:41;;;;;;;;;9.00;8.25;;;;;11.62;96.24;101452.25;5060459;28;46160;-64
2021/11/14 05:35:08;;;;;;;;;11.25;10.00;;;;;11.63;96.09;101448.75;5059840;28;45852;-63
2021/11/14 05:37:34;;;;;;;;;12.75;8.50;;;;;11.63;96.59;101448.75;5059866;28;45274;-63
2021/11/14 05:39:59;;;;;;;;;11.50;10.25;;;;;11.63;97.09;101446.16;5060539;28;45414;-63
2021/11/14 05:42:24;;;;;;;;;11.00;10.00;;;;;11.62;96.41;101447.03;5060653;28;45418;-68
2021/11/14 05:44:50;;;;;;;;;10.25;8.25;;;;;11.63;96.68;101451.38;5059661;28;45257;-68
2021/11/14 05:47:15;;;;;;;;;11.75;9.00;;;;;11.70;96.55;101452.09;5059917;28;45361;-68
2021/11/14 05:49:41;;;;;;;;;13.50;10.00;;;;;11.71;96.66;101448.59;5060158;28;45450;-68
2021/11/14 05:52:06;;;;;;;;;16.00;12.00;;;;;11.73;96.43;101460.69;5059037;28;45442;-68
2021/11/14 05:54:33;;;;;;;;;17.00;10.50;;;;;11.76;96.09;101463.22;5054029;28;45390;-66
2021/11/14 05:56:58;;;;;;;;;15.00;11.00;;;;;11.75;96.69;101465.84;5060663;28;45316;-65
2021/11/14 06:02:00;;;;;;;;;11.50;10.50;;;;;11.75;96.35;101466.72;5050203;28;45429;-67
2021/11/14 06:06:54;;;;;;;;;7.25;5.25;;;;;11.74;96.88;101469.34;5060101;28;46199;-67
2021/11/14 06:09:19;;;;;;;;;12.75;11.00;;;;;11.70;96.74;101468.56;5060153;28;45216;-65
2021/11/14 06:11:45;;;;;;;;;11.75;8.50;;;;;11.69;97.17;101472.06;5059483;28;45340;-65
2021/11/14 06:14:10;;;;;;;;;13.50;9.75;;;;;11.70;96.78;101473.78;5059714;28;45357;-68
2021/11/14 06:16:36;;;;;;;;;10.00;9.00;;;;;11.73;96.69;101471.09;5059876;28;45271;-67
2021/11/14 06:19:02;;;;;;;;;12.75;10.25;;;;;11.73;96.60;101473.69;5048072;28;45481;-65
2021/11/14 06:21:27;;;;;;;;;10.50;10.50;;;;;11.74;96.57;101472.81;5056447;28;45417;-65
2021/11/14 06:23:53;;;;;;;;;11.75;9.50;;;;;11.69;96.93;101472.06;5057682;28;45295;-69
2021/11/14 06:26:19;;;;;;;;;15.00;11.00;;;;;11.73;96.60;101489.31;5058741;28;45447;-66
2021/11/14 06:28:44;;;;;;;;;11.50;9.75;;;;;11.72;96.68;101485.00;5059103;28;45334;-67
2021/11/14 06:31:10;;;;;;;;;11.25;9.00;;;;;11.76;96.68;101485.81;5057500;28;46334;-62
2021/11/14 06:33:35;;;;;;;;;16.75;11.75;;;;;11.75;96.42;101487.53;5058929;28;45355;-67
2021/11/14 06:36:01;;;;;;;;;13.75;9.00;;;;;11.73;96.42;101478.91;5058222;28;45411;-68
2021/11/14 06:38:26;;;;;;;;;10.25;10.25;;;;;11.76;96.96;101488.41;5058829;28;45335;-67
2021/11/14 06:40:52;;;;;;;;;13.75;10.75;;;;;11.74;96.83;101491.03;5057362;28;45313;-68
2021/11/14 06:43:18;;;;;;;;;9.50;7.75;;;;;11.74;96.90;101496.25;5059640;28;45836;-67
2021/11/14 06:45:43;;;;;;;;;11.75;11.00;;;;;11.75;97.23;101489.28;5057094;28;46325;-68
2021/11/14 06:48:08;;;;;;;;;9.50;8.50;;;;;11.75;97.13;101495.34;5059714;28;45306;-67
2021/11/14 06:50:34;;;;;;;;;11.25;10.00;;;;;11.78;97.20;101497.03;5058870;28;45307;-67
2021/11/14 06:53:00;;;;;;;;;10.75;8.75;;;;;11.78;96.97;101490.13;5056322;28;45681;-69
2021/11/14 06:55:26;;;;;;;;;13.00;10.00;;;;;11.81;96.92;101491.78;5050408;28;45407;-67
2021/11/14 06:57:51;;;;;;;;;12.75;10.50;;;;;11.83;96.79;101503.94;5047940;28;45430;-66
2021/11/14 07:00:21;;;;;;;;;10.00;10.00;;;;;11.77;97.07;101496.19;5055174;28;46248;-64
2021/11/14 07:02:47;;;;;;;;;14.00;9.75;;;;;11.84;97.12;101513.44;5060637;28;45336;-64
2021/11/14 07:05:12;;;;;;;;;12.50;8.25;;;;;11.81;96.85;101505.72;5049784;28;45589;-65
2021/11/14 07:07:38;;;;;;;;;10.50;9.75;;;;;11.93;96.65;101516.75;5062690;28;45373;-64
2021/11/14 07:10:06;;;;;;;;;9.75;9.00;;;;;11.98;96.63;101520.09;5057510;28;47489;-65
2021/11/14 07:12:32;;;;;;;;;9.00;7.00;;;;;12.02;96.52;101522.63;5052314;28;45567;-64
2021/11/14 07:14:57;;;;;;;;;11.25;10.25;;;;;12.04;96.29;101525.22;5062036;28;45166;-67
2021/11/14 07:17:25;;;;;;;;;11.75;10.00;;;;;12.10;96.14;101530.28;5055176;28;46124;-66
2021/11/14 07:19:51;;;;;;;;;8.75;6.50;;;;;12.09;96.06;101525.97;5051147;28;45307;-65
2021/11/14 07:22:16;;;;;;;;;10.25;6.00;;;;;12.15;95.88;101534.50;5051208;28;45481;-66
2021/11/14 07:24:41;;;;;;;;;11.75;10.50;;;;;12.14;95.84;101527.56;5053019;28;45320;-66
2021/11/14 07:27:07;;;;;;;;;11.75;9.00;;;;;12.23;95.88;101536.09;5051691;28;45803;-66
2021/11/14 07:29:32;;;;;;;;;7.75;6.50;;;;;12.23;95.40;101538.72;5062326;28;45429;-66
2021/11/14 07:31:58;;;;;;;;;9.00;8.25;;;;;12.26;95.41;101546.44;5062221;28;45272;-66
2021/11/14 07:34:23;;;;;;;;;9.25;8.75;;;;;12.30;95.60;101548.94;5062070;28;45387;-66
2021/11/14 07:36:48;;;;;;;;;11.25;9.75;;;;;12.29;95.45;101544.63;5061699;28;45212;-66
2021/11/14 07:39:14;;;;;;;;;10.25;9.25;;;;;12.30;95.24;101554.16;5061846;28;45267;-66
2021/11/14 07:41:39;;;;;;;;;11.50;11.00;;;;;12.30;95.32;101548.94;5062461;28;45261;-66
2021/11/14 07:44:05;;;;;;;;;11.25;10.75;;;;;12.33;95.32;101559.31;5061890;28;45938;-66
2021/11/14 07:46:30;;;;;;;;;12.25;9.00;;;;;12.37;95.06;101557.50;5061362;28;45512;-66
2021/11/14 07:48:56;;;;;;;;;13.00;9.50;;;;;12.38;95.37;101562.66;5061538;28;45248;-65
2021/11/14 07:51:22;;;;;;;;;13.50;7.00;;;;;12.43;95.40;101568.66;5061948;28;45421;-66
2021/11/14 07:53:48;;;;;;;;;9.25;8.50;;;;;12.44;94.76;101569.53;5055917;28;45200;-66
2021/11/14 07:56:14;;;;;;;;;10.75;10.00;;;;;12.45;94.83;101576.44;5061798;28;45153;-66
2021/11/14 07:58:40;;;;;;;;;11.25;8.00;;;;;12.47;94.61;101572.06;5060465;28;47312;-66
2021/11/14 08:01:05;;;;;;;;;7.25;6.00;;;;;12.43;94.20;101576.47;5061843;28;45456;-66
2021/11/14 08:03:34;;;;;;;;;9.00;7.25;;;;;12.41;94.26;101582.59;5061925;28;45320;-66
2021/11/14 08:06:01;;;;;;;;;12.25;9.75;;;;;12.35;94.27;101587.94;5057770;28;45363;-66
2021/11/14 08:08:26;;;;;;;;;8.25;6.00;;;;;12.35;94.38;101582.72;5059204;28;46043;-65
2021/11/14 08:10:52;;;;;;;;;6.00;6.00;;;;;12.33;94.32;101584.50;5061073;28;45302;-65
2021/11/14 08:13:17;;;;;;;;;10.50;6.00;;;;;12.28;94.77;101586.38;5061313;28;45571;-66
2021/11/14 08:15:42;;;;;;;;;6.25;5.25;;;;;12.25;94.58;101594.25;5061618;28;45222;-67
2021/11/14 08:18:08;;;;;;;;;15.50;9.50;;;;;12.28;94.70;101589.84;5057067;28;45270;-66
2021/11/14 08:20:35;;;;;;;;;6.00;4.00;;;;;12.29;94.77;101591.53;5051641;28;45292;-66
2021/11/14 08:23:03;;;;;;;;;10.00;8.00;;;;;12.23;94.19;101581.25;5059895;28;45353;-67
2021/11/14 08:25:29;;;;;;;;;4.50;4.50;;;;;12.26;94.40;101594.22;5052266;28;45605;-68
2021/11/14 08:27:55;;;;;;;;;8.75;6.50;;;;;12.24;94.46;101585.56;5061256;28;45304;-63
2021/11/14 08:30:21;;;;;;;;;7.75;7.75;;;;;12.20;94.39;101594.31;5061372;28;45248;-63
2021/11/14 08:32:48;;;;;;;;;10.00;5.50;;;;;12.24;94.76;101580.38;5061281;28;45362;-65
2021/11/14 08:35:13;;;;;;;;;10.25;5.75;;;;;12.27;94.60;101588.13;5061244;28;45499;-66
2021/11/14 08:37:39;;;;;;;;;8.00;6.00;;;;;12.34;94.46;101592.31;5060678;28;45394;-64
2021/11/14 08:40:08;;;;;;;;;8.75;8.75;;;;;12.40;94.09;101592.16;5061440;28;45332;-64
2021/11/14 08:42:34;;;;;;;;;10.50;6.25;;;;;12.42;94.05;101585.19;5061572;28;45520;-65
2021/11/14 08:44:59;;;;;;;;;9.75;6.00;;;;;12.48;93.95;101590.25;5060212;28;45422;-67
2021/11/14 08:47:25;;;;;;;;;9.50;7.25;;;;;12.51;93.68;101594.56;5060288;28;45887;-68
2021/11/14 08:49:50;;;;;;;;;6.00;6.00;;;;;12.48;93.94;101597.22;5061077;28;45280;-66
2021/11/14 08:52:16;;;;;;;;;8.50;8.50;;;;;12.46;93.54;101589.44;5060753;28;45674;-67
2021/11/14 08:54:42;;;;;;;;;10.00;9.00;;;;;12.48;93.48;101598.09;5054668;28;45460;-64
2021/11/14 08:57:09;;;;;;;;;10.00;10.00;;;;;12.50;93.59;101595.44;5061198;28;46679;-70
2021/11/14 08:59:35;;;;;;;;;13.00;9.00;;;;;12.60;93.78;101593.47;5061622;28;45723;-72
2021/11/14 09:02:02;;;;;;;;;10.00;8.50;;;;;12.71;93.42;101594.09;5061155;28;45524;-68
2021/11/14 09:04:27;;;;;;;;;10.00;10.00;;;;;12.72;93.09;101595.81;5059711;28;45977;-68
2021/11/14 09:06:55;;;;;;;;;13.25;10.25;;;;;12.82;92.82;101599.09;5060893;28;45516;-65
2021/11/14 09:09:22;;;;;;;;;7.50;7.50;;;;;12.86;92.90;101605.94;5054914;28;45751;-63
2021/11/14 09:11:48;;;;;;;;;11.00;9.75;;;;;12.85;92.16;101599.88;5059486;28;45441;-64
2021/11/14 09:14:14;;;;;;;;;11.50;8.50;;;;;12.85;92.52;101599.88;5060819;28;45435;-64
2021/11/14 09:16:40;;;;;;;;;5.50;5.00;;;;;12.83;91.56;101596.44;5060539;28;46046;-65
2021/11/14 09:19:08;;;;;;;;;10.00;10.00;;;;;12.83;91.67;101598.19;5059995;28;45373;-65
2021/11/14 09:21:35;;;;;;;;;4.50;3.00;;;;;12.82;91.91;101610.38;5060923;28;45430;-66
2021/11/14 09:24:01;;;;;;;;;5.50;5.00;;;;;12.84;91.85;101605.13;5059343;28;46065;-67
2021/11/14 09:26:26;;;;;;;;;5.00;2.25;;;;;12.91;90.61;101604.09;5059056;28;46230;-66
2021/11/14 09:28:52;;;;;;;;;7.75;5.00;;;;;12.94;91.42;101598.78;5060658;28;45268;-67
2021/11/14 09:31:17;;;;;;;;;5.00;4.75;;;;;13.05;90.65;101597.66;5060117;28;45179;-66
2021/11/14 09:33:44;;;;;;;;;4.00;2.75;;;;;13.22;90.82;101610.34;5060584;28;45588;-65
2021/11/14 09:36:10;;;;;;;;;6.75;5.00;;;;;13.30;89.06;101607.53;5059609;28;46286;-66
2021/11/14 09:38:36;;;;;;;;;7.50;5.50;;;;;13.31;89.42;101614.47;5060541;28;45386;-65
2021/11/14 09:41:05;;;;;;;;;7.50;6.75;;;;;13.32;89.97;101597.91;5059847;28;45374;-63
2021/11/14 09:43:31;;;;;;;;;7.50;6.25;;;;;13.39;89.25;101609.91;5060191;28;45568;-64
2021/11/14 09:45:57;;;;;;;;;11.00;6.00;;;;;13.36;88.44;101603.00;5058713;28;47253;-64
2021/11/14 09:48:23;;;;;;;;;8.00;5.75;;;;;13.29;89.11;101608.44;5060586;28;45275;-64
2021/11/14 09:50:50;;;;;;;;;8.00;6.75;;;;;13.23;89.53;101617.28;5059962;28;45434;-63
2021/11/14 09:53:16;;;;;;;;;10.75;7.75;;;;;13.15;89.63;101618.31;5054933;28;45449;-64
2021/11/14 09:55:41;;;;;;;;;8.00;6.50;;;;;13.05;90.23;101613.31;5058691;28;46284;-64
2021/11/14 09:58:08;;;;;;;;;7.25;7.25;;;;;13.03;90.01;101611.63;5060528;28;45346;-64
2021/11/14 10:00:35;;;;;;;;;12.25;9.25;;;;;12.99;90.44;101615.19;5058713;28;45337;-62
2021/11/14 10:03:01;;;;;;;;;12.50;9.50;;;;;13.00;90.92;101619.50;5047897;28;45767;-63
2021/11/14 10:05:26;;;;;;;;;12.25;8.25;;;;;13.00;90.57;101628.19;5048618;28;46023;-63
2021/11/14 10:08:05;;;;;;;;;12.75;10.00;;;;;12.93;90.84;101626.63;5049615;28;45206;-63
2021/11/14 10:11:00;;;;;;;;;13.00;8.50;;;;;12.92;91.14;101622.31;5049719;28;45493;-62
2021/11/14 10:13:28;;;;;;;;;16.00;10.50;;;;;12.94;91.21;101630.97;5045814;28;46433;-66
2021/11/14 10:16:12;;;;;;;;;15.00;11.00;;;;;12.92;91.42;101629.28;5048486;28;46137;-64
2021/11/14 10:18:40;;;;;;;;;14.00;12.00;;;;;12.89;91.60;101622.38;5051461;28;45433;-63
2021/11/14 10:21:06;;;;;;;;;13.75;12.50;;;;;12.95;91.41;101622.25;5048262;28;45490;-62
2021/11/14 10:23:35;;;;;;;;;15.00;11.75;;;;;12.97;91.17;101620.44;5047012;28;45667;-64
2021/11/14 10:26:09;;;;;;;;;10.00;7.25;;;;;13.04;91.07;101616.81;5052184;28;45374;-66
2021/11/14 10:28:37;;;;;;;;;14.50;12.00;;;;;13.13;91.10;101615.72;5047199;28;45509;-68
2021/11/14 10:31:04;;;;;;;;;14.25;11.75;;;;;13.20;89.92;101622.53;5051634;28;45299;-69
2021/11/14 10:33:29;;;;;;;;;14.50;12.00;;;;;13.21;89.95;101621.63;5046904;28;45536;-67
2021/11/14 10:35:58;;;;;;;;;13.00;12.75;;;;;13.25;90.62;101618.09;5051008;28;46175;-68
2021/11/14 10:38:31;;;;;;;;;16.75;12.50;;;;;13.26;90.04;101618.94;5044004;28;45260;-65
2021/11/14 10:41:02;;;;;;;;;19.75;14.00;;;;;13.26;89.09;101621.56;5050177;28;45491;-65
2021/11/14 10:43:29;;;;;;;;;10.25;10.25;;;;;13.26;89.37;101616.34;5047413;28;45303;-66
2021/11/14 10:45:58;;;;;;;;;13.00;12.25;;;;;13.25;89.53;101622.44;5044802;28;45265;-68
2021/11/14 10:48:26;;;;;;;;;17.00;12.25;;;;;13.22;89.38;101617.31;5045372;28;45850;-72
2021/11/14 10:50:57;;;;;;;;;13.00;10.75;;;;;13.23;89.65;101616.41;5043925;28;45455;-69
2021/11/14 10:53:27;;;;;;;;;15.50;12.75;;;;;13.23;89.73;101621.63;5049631;28;45751;-69
2021/11/14 10:55:58;;;;;;;;;14.75;13.00;;;;;13.24;89.79;101620.75;5050220;28;45396;-68
2021/11/14 10:58:27;;;;;;;;;18.25;13.00;;;;;13.21;89.88;101615.56;5050036;28;45526;-71
2021/11/14 11:00:58;;;;;;;;;11.75;11.75;;;;;13.19;89.84;101617.34;5045547;28;45462;-69
2021/11/14 11:03:33;;;;;;;;;13.00;11.75;;;;;13.17;89.79;101621.72;5050045;28;45583;-69
2021/11/14 11:06:04;;;;;;;;;11.00;9.00;;;;;13.19;89.92;101619.97;5049359;28;47121;-68
2021/11/14 11:08:31;;;;;;;;;17.50;15.25;;;;;13.19;89.49;101625.19;5043369;28;45712;-63
2021/11/14 11:11:00;;;;;;;;;15.75;10.75;;;;;13.21;89.46;101626.00;5050158;28;45427;-62
2021/11/14 11:13:36;;;;;;;;;16.25;11.75;;;;;13.26;89.58;101625.03;5049594;28;45359;-62
2021/11/14 11:16:11;;;;;;;;;15.75;11.00;;;;;13.34;89.17;101625.69;5049217;28;46113;-62
2021/11/14 11:18:38;;;;;;;;;16.25;11.00;;;;;13.43;89.10;101628.97;5041583;28;45903;-63